sensor_id;sensor_type;location;lat;lon;timestamp;temperature;humidity
40670;DHT22;26355;45.528;9.234;2022-12-18T00:00:44;10.40;99.90
40670;DHT22;26355;45.528;9.234;2022-12-18T00:03:13;10.10;99.90
40670;DHT22;26355;45.528;9.234;2022-12-18T00:05:46;9.90;99.90
40670;DHT22;26355;45.528;9.234;2022-12-18T00:08:13;10.30;99.90
40670;DHT22;26355;45.528;9.234;2022-12-18T00:10:38;10.00;99.90
40670;DHT22;26355;45.528;9.234;2022-12-18T00:13:04;9.80;99.90
40670;DHT22;26355;45.528;9.234;2022-12-18T00:15:30;9.90;99.90
40670;DHT22;26355;45.528;9.234;2022-12-18T00:17:56;10.00;99.90
40670;DHT22;26355;45.528;9.234;2022-12-18T00:20:21;9.90;99.90
40670;DHT22;26355;45.528;9.234;2022-12-18T00:22:52;10.00;99.90
40670;DHT22;26355;45.528;9.234;2022-12-18T00:25:17;9.50;99.90
40670;DHT22;26355;45.528;9.234;2022-12-18T00:27:43;9.90;99.90
40670;DHT22;26355;45.528;9.234;2022-12-18T00:30:09;10.20;99.90
40670;DHT22;26355;45.528;9.234;2022-12-18T00:32:35;10.50;99.90
40670;DHT22;26355;45.528;9.234;2022-12-18T00:35:01;10.20;99.90
40670;DHT22;26355;45.528;9.234;2022-12-18T00:37:28;9.60;99.90
40670;DHT22;26355;45.528;9.234;2022-12-18T00:39:54;9.90;99.90
40670;DHT22;26355;45.528;9.234;2022-12-18T00:42:20;9.70;99.90
40670;DHT22;26355;45.528;9.234;2022-12-18T00:45:06;9.80;99.90
40670;DHT22;26355;45.528;9.234;2022-12-18T00:47:34;10.10;99.90
40670;DHT22;26355;45.528;9.234;2022-12-18T00:50:01;9.80;99.90
40670;DHT22;26355;45.528;9.234;2022-12-18T00:52:42;10.00;99.90
40670;DHT22;26355;45.528;9.234;2022-12-18T00:55:11;10.00;99.90
40670;DHT22;26355;45.528;9.234;2022-12-18T00:57:39;9.80;99.90
40670;DHT22;26355;45.528;9.234;2022-12-18T01:00:20;9.80;99.90
40670;DHT22;26355;45.528;9.234;2022-12-18T01:02:55;9.80;99.90
40670;DHT22;26355;45.528;9.234;2022-12-18T01:05:39;9.80;99.90
40670;DHT22;26355;45.528;9.234;2022-12-18T01:08:11;9.80;99.90
40670;DHT22;26355;45.528;9.234;2022-12-18T01:10:40;9.70;99.90
40670;DHT22;26355;45.528;9.234;2022-12-18T01:13:07;9.80;99.90
40670;DHT22;26355;45.528;9.234;2022-12-18T01:15:33;9.50;99.90
40670;DHT22;26355;45.528;9.234;2022-12-18T01:17:59;10.00;99.90
40670;DHT22;26355;45.528;9.234;2022-12-18T01:20:25;9.70;99.90
40670;DHT22;26355;45.528;9.234;2022-12-18T01:22:51;9.80;99.90
40670;DHT22;26355;45.528;9.234;2022-12-18T01:25:17;9.70;99.90
40670;DHT22;26355;45.528;9.234;2022-12-18T01:27:43;9.60;99.90
40670;DHT22;26355;45.528;9.234;2022-12-18T01:30:10;10.50;99.90
40670;DHT22;26355;45.528;9.234;2022-12-18T01:32:36;9.00;99.90
40670;DHT22;26355;45.528;9.234;2022-12-18T01:35:02;9.70;99.90
40670;DHT22;26355;45.528;9.234;2022-12-18T01:37:28;9.40;99.90
40670;DHT22;26355;45.528;9.234;2022-12-18T01:39:54;9.10;99.90
40670;DHT22;26355;45.528;9.234;2022-12-18T01:42:21;8.30;99.90
40670;DHT22;26355;45.528;9.234;2022-12-18T01:47:20;9.50;99.90
40670;DHT22;26355;45.528;9.234;2022-12-18T01:49:47;9.60;99.90
40670;DHT22;26355;45.528;9.234;2022-12-18T01:52:13;9.50;99.90
40670;DHT22;26355;45.528;9.234;2022-12-18T01:54:40;10.80;99.90
40670;DHT22;26355;45.528;9.234;2022-12-18T01:57:06;9.50;99.90
40670;DHT22;26355;45.528;9.234;2022-12-18T01:59:32;9.40;99.90
40670;DHT22;26355;45.528;9.234;2022-12-18T02:01:59;8.90;99.90
40670;DHT22;26355;45.528;9.234;2022-12-18T02:04:27;9.60;99.90
40670;DHT22;26355;45.528;9.234;2022-12-18T02:07:07;9.30;99.90
40670;DHT22;26355;45.528;9.234;2022-12-18T02:10:19;9.70;99.90
40670;DHT22;26355;45.528;9.234;2022-12-18T02:18:43;9.60;99.90
40670;DHT22;26355;45.528;9.234;2022-12-18T02:23:56;10.30;99.90
40670;DHT22;26355;45.528;9.234;2022-12-18T02:26:37;9.40;99.90
40670;DHT22;26355;45.528;9.234;2022-12-18T02:29:21;8.90;99.90
40670;DHT22;26355;45.528;9.234;2022-12-18T02:31:54;8.70;99.90
40670;DHT22;26355;45.528;9.234;2022-12-18T02:34:26;9.30;99.90
40670;DHT22;26355;45.528;9.234;2022-12-18T02:36:54;10.00;99.90
40670;DHT22;26355;45.528;9.234;2022-12-18T02:39:21;9.20;99.90
40670;DHT22;26355;45.528;9.234;2022-12-18T02:41:49;9.70;99.90
40670;DHT22;26355;45.528;9.234;2022-12-18T02:44:15;9.30;99.90
40670;DHT22;26355;45.528;9.234;2022-12-18T02:46:44;10.10;99.90
40670;DHT22;26355;45.528;9.234;2022-12-18T02:52:23;9.60;99.90
40670;DHT22;26355;45.528;9.234;2022-12-18T02:58:03;8.80;99.90
40670;DHT22;26355;45.528;9.234;2022-12-18T03:01:03;9.10;99.90
40670;DHT22;26355;45.528;9.234;2022-12-18T03:03:53;8.80;99.90
40670;DHT22;26355;45.528;9.234;2022-12-18T03:06:26;8.90;99.90
40670;DHT22;26355;45.528;9.234;2022-12-18T03:08:58;8.90;99.90
40670;DHT22;26355;45.528;9.234;2022-12-18T03:11:26;8.80;99.90
40670;DHT22;26355;45.528;9.234;2022-12-18T03:14:24;9.00;99.90
40670;DHT22;26355;45.528;9.234;2022-12-18T03:16:54;8.80;99.90
40670;DHT22;26355;45.528;9.234;2022-12-18T03:19:25;9.40;99.90
40670;DHT22;26355;45.528;9.234;2022-12-18T03:21:55;8.90;99.90
40670;DHT22;26355;45.528;9.234;2022-12-18T03:24:23;10.00;99.90
40670;DHT22;26355;45.528;9.234;2022-12-18T03:26:51;8.70;99.90
40670;DHT22;26355;45.528;9.234;2022-12-18T03:29:38;9.60;99.90
40670;DHT22;26355;45.528;9.234;2022-12-18T03:32:18;8.70;99.90
40670;DHT22;26355;45.528;9.234;2022-12-18T03:34:48;8.70;99.90
40670;DHT22;26355;45.528;9.234;2022-12-18T03:37:16;9.10;99.90
40670;DHT22;26355;45.528;9.234;2022-12-18T03:39:42;8.90;99.90
40670;DHT22;26355;45.528;9.234;2022-12-18T03:52:51;8.40;99.90
40670;DHT22;26355;45.528;9.234;2022-12-18T03:55:19;8.90;99.90
40670;DHT22;26355;45.528;9.234;2022-12-18T03:57:48;9.00;99.90
40670;DHT22;26355;45.528;9.234;2022-12-18T04:00:14;8.90;99.90
40670;DHT22;26355;45.528;9.234;2022-12-18T04:02:50;9.00;99.90
40670;DHT22;26355;45.528;9.234;2022-12-18T04:05:18;9.00;99.90
40670;DHT22;26355;45.528;9.234;2022-12-18T04:07:48;8.50;99.90
40670;DHT22;26355;45.528;9.234;2022-12-18T04:10:15;9.50;99.90
40670;DHT22;26355;45.528;9.234;2022-12-18T04:12:41;9.90;99.90
40670;DHT22;26355;45.528;9.234;2022-12-18T04:15:08;9.10;99.90
40670;DHT22;26355;45.528;9.234;2022-12-18T04:17:35;9.50;99.90
40670;DHT22;26355;45.528;9.234;2022-12-18T04:20:00;9.00;99.90
40670;DHT22;26355;45.528;9.234;2022-12-18T04:22:26;8.90;99.90
40670;DHT22;26355;45.528;9.234;2022-12-18T04:24:52;8.80;99.90
40670;DHT22;26355;45.528;9.234;2022-12-18T04:27:17;8.80;99.90
40670;DHT22;26355;45.528;9.234;2022-12-18T04:29:43;8.90;99.90
40670;DHT22;26355;45.528;9.234;2022-12-18T04:32:09;9.30;99.90
40670;DHT22;26355;45.528;9.234;2022-12-18T04:34:35;8.90;99.90
40670;DHT22;26355;45.528;9.234;2022-12-18T04:37:00;9.00;99.90
40670;DHT22;26355;45.528;9.234;2022-12-18T04:39:26;9.30;99.90
40670;DHT22;26355;45.528;9.234;2022-12-18T04:41:52;10.10;99.90
40670;DHT22;26355;45.528;9.234;2022-12-18T04:44:18;8.90;99.90
40670;DHT22;26355;45.528;9.234;2022-12-18T04:46:44;9.00;99.90
40670;DHT22;26355;45.528;9.234;2022-12-18T04:49:09;9.00;99.90
40670;DHT22;26355;45.528;9.234;2022-12-18T04:51:38;9.10;99.90
40670;DHT22;26355;45.528;9.234;2022-12-18T04:54:04;7.90;99.90
40670;DHT22;26355;45.528;9.234;2022-12-18T04:56:31;8.90;99.90
40670;DHT22;26355;45.528;9.234;2022-12-18T04:58:57;8.90;99.90
40670;DHT22;26355;45.528;9.234;2022-12-18T05:01:23;8.80;99.90
40670;DHT22;26355;45.528;9.234;2022-12-18T05:03:50;8.50;99.90
40670;DHT22;26355;45.528;9.234;2022-12-18T05:06:16;9.00;99.90
40670;DHT22;26355;45.528;9.234;2022-12-18T05:08:41;8.80;99.90
40670;DHT22;26355;45.528;9.234;2022-12-18T05:11:26;8.70;99.90
40670;DHT22;26355;45.528;9.234;2022-12-18T05:13:52;9.60;99.90
40670;DHT22;26355;45.528;9.234;2022-12-18T05:16:17;8.80;99.90
40670;DHT22;26355;45.528;9.234;2022-12-18T05:18:43;8.90;99.90
40670;DHT22;26355;45.528;9.234;2022-12-18T05:21:09;8.80;99.90
40670;DHT22;26355;45.528;9.234;2022-12-18T05:23:35;8.80;99.90
40670;DHT22;26355;45.528;9.234;2022-12-18T05:26:03;8.80;99.90
40670;DHT22;26355;45.528;9.234;2022-12-18T05:28:31;8.40;99.90
40670;DHT22;26355;45.528;9.234;2022-12-18T05:30:59;8.80;99.90
40670;DHT22;26355;45.528;9.234;2022-12-18T05:33:31;10.20;99.90
40670;DHT22;26355;45.528;9.234;2022-12-18T05:36:00;8.80;99.90
40670;DHT22;26355;45.528;9.234;2022-12-18T05:38:27;8.90;99.90
40670;DHT22;26355;45.528;9.234;2022-12-18T05:40:54;8.60;99.90
40670;DHT22;26355;45.528;9.234;2022-12-18T05:43:21;8.70;99.90
40670;DHT22;26355;45.528;9.234;2022-12-18T05:45:48;8.90;99.90
40670;DHT22;26355;45.528;9.234;2022-12-18T05:48:14;8.70;99.90
40670;DHT22;26355;45.528;9.234;2022-12-18T05:50:41;8.70;99.90
40670;DHT22;26355;45.528;9.234;2022-12-18T05:53:08;8.70;99.90
40670;DHT22;26355;45.528;9.234;2022-12-18T05:55:35;8.60;99.90
40670;DHT22;26355;45.528;9.234;2022-12-18T05:58:03;8.50;99.90
40670;DHT22;26355;45.528;9.234;2022-12-18T06:00:29;8.70;99.90
40670;DHT22;26355;45.528;9.234;2022-12-18T06:02:55;9.60;99.90
40670;DHT22;26355;45.528;9.234;2022-12-18T06:05:21;8.80;99.90
40670;DHT22;26355;45.528;9.234;2022-12-18T06:07:47;8.90;99.90
40670;DHT22;26355;45.528;9.234;2022-12-18T06:10:13;8.80;99.90
40670;DHT22;26355;45.528;9.234;2022-12-18T06:12:39;8.70;99.90
40670;DHT22;26355;45.528;9.234;2022-12-18T06:15:05;8.40;99.90
40670;DHT22;26355;45.528;9.234;2022-12-18T06:17:32;8.90;99.90
40670;DHT22;26355;45.528;9.234;2022-12-18T06:19:58;8.20;99.90
40670;DHT22;26355;45.528;9.234;2022-12-18T06:22:24;9.30;99.90
40670;DHT22;26355;45.528;9.234;2022-12-18T06:24:50;8.70;99.90
40670;DHT22;26355;45.528;9.234;2022-12-18T06:27:16;8.90;99.90
40670;DHT22;26355;45.528;9.234;2022-12-18T06:29:42;9.00;99.90
40670;DHT22;26355;45.528;9.234;2022-12-18T06:32:08;9.10;99.90
40670;DHT22;26355;45.528;9.234;2022-12-18T06:34:34;8.70;99.90
40670;DHT22;26355;45.528;9.234;2022-12-18T06:37:00;9.80;99.90
40670;DHT22;26355;45.528;9.234;2022-12-18T06:39:28;9.10;99.90
40670;DHT22;26355;45.528;9.234;2022-12-18T06:41:54;9.00;99.90
40670;DHT22;26355;45.528;9.234;2022-12-18T06:44:20;9.40;99.90
40670;DHT22;26355;45.528;9.234;2022-12-18T06:46:46;10.00;99.90
40670;DHT22;26355;45.528;9.234;2022-12-18T06:49:11;9.80;99.90
40670;DHT22;26355;45.528;9.234;2022-12-18T06:51:38;9.40;99.90
40670;DHT22;26355;45.528;9.234;2022-12-18T06:54:03;10.10;99.90
40670;DHT22;26355;45.528;9.234;2022-12-18T06:56:29;9.60;99.90
40670;DHT22;26355;45.528;9.234;2022-12-18T06:58:55;9.50;99.90
40670;DHT22;26355;45.528;9.234;2022-12-18T07:01:21;9.40;99.90
40670;DHT22;26355;45.528;9.234;2022-12-18T07:03:52;8.80;99.90
40670;DHT22;26355;45.528;9.234;2022-12-18T07:06:20;9.50;99.90
40670;DHT22;26355;45.528;9.234;2022-12-18T07:08:47;9.60;99.90
40670;DHT22;26355;45.528;9.234;2022-12-18T07:11:13;9.50;99.90
40670;DHT22;26355;45.528;9.234;2022-12-18T07:13:39;10.20;99.90
40670;DHT22;26355;45.528;9.234;2022-12-18T07:16:15;9.60;99.90
40670;DHT22;26355;45.528;9.234;2022-12-18T07:18:42;9.70;99.90
40670;DHT22;26355;45.528;9.234;2022-12-18T07:21:10;9.70;99.90
40670;DHT22;26355;45.528;9.234;2022-12-18T07:23:36;9.40;99.90
40670;DHT22;26355;45.528;9.234;2022-12-18T07:26:10;9.80;99.90
40670;DHT22;26355;45.528;9.234;2022-12-18T07:28:37;9.30;99.90
40670;DHT22;26355;45.528;9.234;2022-12-18T07:31:04;9.80;99.90
40670;DHT22;26355;45.528;9.234;2022-12-18T07:33:32;9.80;99.90
40670;DHT22;26355;45.528;9.234;2022-12-18T07:35:59;9.70;99.90
40670;DHT22;26355;45.528;9.234;2022-12-18T07:38:25;9.70;99.90
40670;DHT22;26355;45.528;9.234;2022-12-18T07:40:51;9.90;99.90
40670;DHT22;26355;45.528;9.234;2022-12-18T07:43:16;9.90;99.90
40670;DHT22;26355;45.528;9.234;2022-12-18T07:45:43;9.60;99.90
40670;DHT22;26355;45.528;9.234;2022-12-18T07:48:09;9.80;99.90
40670;DHT22;26355;45.528;9.234;2022-12-18T07:50:34;10.00;99.90
40670;DHT22;26355;45.528;9.234;2022-12-18T07:53:00;10.00;99.90
40670;DHT22;26355;45.528;9.234;2022-12-18T07:55:30;9.80;99.90
40670;DHT22;26355;45.528;9.234;2022-12-18T07:57:56;9.90;99.90
40670;DHT22;26355;45.528;9.234;2022-12-18T08:00:21;10.20;99.90
40670;DHT22;26355;45.528;9.234;2022-12-18T08:02:47;9.80;99.90
40670;DHT22;26355;45.528;9.234;2022-12-18T08:05:13;10.10;99.90
40670;DHT22;26355;45.528;9.234;2022-12-18T08:07:39;10.10;99.90
40670;DHT22;26355;45.528;9.234;2022-12-18T08:10:06;10.00;99.90
40670;DHT22;26355;45.528;9.234;2022-12-18T08:12:32;9.60;99.90
40670;DHT22;26355;45.528;9.234;2022-12-18T08:14:58;10.00;99.90
40670;DHT22;26355;45.528;9.234;2022-12-18T08:17:23;10.00;99.90
40670;DHT22;26355;45.528;9.234;2022-12-18T08:19:49;10.00;99.90
40670;DHT22;26355;45.528;9.234;2022-12-18T08:22:15;10.10;99.90
40670;DHT22;26355;45.528;9.234;2022-12-18T08:24:41;10.50;99.90
40670;DHT22;26355;45.528;9.234;2022-12-18T08:27:06;10.00;99.90
40670;DHT22;26355;45.528;9.234;2022-12-18T08:29:32;9.80;99.90
40670;DHT22;26355;45.528;9.234;2022-12-18T08:31:59;10.10;99.90
40670;DHT22;26355;45.528;9.234;2022-12-18T08:34:25;10.40;99.90
40670;DHT22;26355;45.528;9.234;2022-12-18T08:36:50;10.10;99.90
40670;DHT22;26355;45.528;9.234;2022-12-18T08:39:16;10.20;99.90
40670;DHT22;26355;45.528;9.234;2022-12-18T08:41:42;10.20;99.90
40670;DHT22;26355;45.528;9.234;2022-12-18T08:44:08;10.20;99.90
40670;DHT22;26355;45.528;9.234;2022-12-18T08:46:52;10.50;99.90
40670;DHT22;26355;45.528;9.234;2022-12-18T08:49:18;10.00;99.90
40670;DHT22;26355;45.528;9.234;2022-12-18T08:51:43;10.30;99.90
40670;DHT22;26355;45.528;9.234;2022-12-18T08:54:11;10.30;99.90
40670;DHT22;26355;45.528;9.234;2022-12-18T08:56:38;10.40;99.90
40670;DHT22;26355;45.528;9.234;2022-12-18T08:59:03;10.50;99.90
40670;DHT22;26355;45.528;9.234;2022-12-18T09:01:30;10.30;99.90
40670;DHT22;26355;45.528;9.234;2022-12-18T09:03:56;10.30;99.90
40670;DHT22;26355;45.528;9.234;2022-12-18T09:06:22;10.10;99.90
40670;DHT22;26355;45.528;9.234;2022-12-18T09:08:49;10.20;99.90
40670;DHT22;26355;45.528;9.234;2022-12-18T09:11:26;10.40;99.90
40670;DHT22;26355;45.528;9.234;2022-12-18T09:13:52;10.00;99.90
40670;DHT22;26355;45.528;9.234;2022-12-18T09:16:19;10.50;99.90
40670;DHT22;26355;45.528;9.234;2022-12-18T09:18:46;10.80;99.90
40670;DHT22;26355;45.528;9.234;2022-12-18T09:21:17;10.50;99.90
40670;DHT22;26355;45.528;9.234;2022-12-18T09:23:43;10.50;99.90
40670;DHT22;26355;45.528;9.234;2022-12-18T09:26:09;10.50;99.90
40670;DHT22;26355;45.528;9.234;2022-12-18T09:28:37;10.70;99.90
40670;DHT22;26355;45.528;9.234;2022-12-18T09:31:08;10.90;99.90
40670;DHT22;26355;45.528;9.234;2022-12-18T09:33:37;10.80;99.90
40670;DHT22;26355;45.528;9.234;2022-12-18T09:36:04;10.80;99.90
40670;DHT22;26355;45.528;9.234;2022-12-18T09:38:31;10.70;99.90
40670;DHT22;26355;45.528;9.234;2022-12-18T09:41:13;10.80;99.90
40670;DHT22;26355;45.528;9.234;2022-12-18T09:43:49;11.00;99.90
40670;DHT22;26355;45.528;9.234;2022-12-18T09:46:23;11.10;99.90
40670;DHT22;26355;45.528;9.234;2022-12-18T09:48:56;11.10;99.90
40670;DHT22;26355;45.528;9.234;2022-12-18T09:54:24;11.70;99.90
40670;DHT22;26355;45.528;9.234;2022-12-18T09:56:51;13.10;99.90
40670;DHT22;26355;45.528;9.234;2022-12-18T09:59:36;12.10;99.90
40670;DHT22;26355;45.528;9.234;2022-12-18T10:02:16;12.00;99.90
40670;DHT22;26355;45.528;9.234;2022-12-18T10:04:42;11.60;99.90
40670;DHT22;26355;45.528;9.234;2022-12-18T10:07:17;12.10;99.90
40670;DHT22;26355;45.528;9.234;2022-12-18T10:21:37;11.40;99.90
40670;DHT22;26355;45.528;9.234;2022-12-18T10:24:26;11.30;99.90
40670;DHT22;26355;45.528;9.234;2022-12-18T10:27:06;10.50;99.90
40670;DHT22;26355;45.528;9.234;2022-12-18T10:29:35;11.80;99.90
40670;DHT22;26355;45.528;9.234;2022-12-18T10:32:00;11.10;99.90
40670;DHT22;26355;45.528;9.234;2022-12-18T10:34:26;11.20;99.90
40670;DHT22;26355;45.528;9.234;2022-12-18T10:36:52;11.60;99.90
40670;DHT22;26355;45.528;9.234;2022-12-18T10:41:45;12.30;99.90
40670;DHT22;26355;45.528;9.234;2022-12-18T10:44:22;12.10;99.90
40670;DHT22;26355;45.528;9.234;2022-12-18T10:46:55;13.00;99.90
40670;DHT22;26355;45.528;9.234;2022-12-18T10:49:30;12.90;99.90
40670;DHT22;26355;45.528;9.234;2022-12-18T10:52:16;13.50;99.90
40670;DHT22;26355;45.528;9.234;2022-12-18T10:54:54;13.40;99.90
40670;DHT22;26355;45.528;9.234;2022-12-18T10:57:31;12.60;99.90
40670;DHT22;26355;45.528;9.234;2022-12-18T10:59:59;12.80;99.90
40670;DHT22;26355;45.528;9.234;2022-12-18T11:02:37;11.80;99.90
40670;DHT22;26355;45.528;9.234;2022-12-18T11:05:26;12.10;99.90
40670;DHT22;26355;45.528;9.234;2022-12-18T11:07:53;11.90;99.90
40670;DHT22;26355;45.528;9.234;2022-12-18T11:10:28;11.80;99.90
40670;DHT22;26355;45.528;9.234;2022-12-18T11:12:54;11.60;99.90
40670;DHT22;26355;45.528;9.234;2022-12-18T11:15:24;11.30;99.90
40670;DHT22;26355;45.528;9.234;2022-12-18T11:17:52;10.70;99.90
40670;DHT22;26355;45.528;9.234;2022-12-18T11:20:31;10.90;99.90
40670;DHT22;26355;45.528;9.234;2022-12-18T11:23:02;11.50;99.90
40670;DHT22;26355;45.528;9.234;2022-12-18T11:25:29;11.00;99.90
40670;DHT22;26355;45.528;9.234;2022-12-18T11:31:27;11.00;99.90
40670;DHT22;26355;45.528;9.234;2022-12-18T11:34:32;10.70;99.90
40670;DHT22;26355;45.528;9.234;2022-12-18T11:36:51;10.60;99.90
40670;DHT22;26355;45.528;9.234;2022-12-18T11:42:04;11.10;99.90
40670;DHT22;26355;45.528;9.234;2022-12-18T11:50:20;11.40;99.90
40670;DHT22;26355;45.528;9.234;2022-12-18T11:52:48;11.00;99.90
40670;DHT22;26355;45.528;9.234;2022-12-18T11:55:19;10.90;99.90
40670;DHT22;26355;45.528;9.234;2022-12-18T12:00:24;11.10;99.90
40670;DHT22;26355;45.528;9.234;2022-12-18T12:17:42;11.10;99.90
40670;DHT22;26355;45.528;9.234;2022-12-18T12:25:51;11.20;99.90
40670;DHT22;26355;45.528;9.234;2022-12-18T12:31:06;11.40;99.90
40670;DHT22;26355;45.528;9.234;2022-12-18T12:33:38;11.40;99.90
40670;DHT22;26355;45.528;9.234;2022-12-18T12:36:35;11.50;99.90
40670;DHT22;26355;45.528;9.234;2022-12-18T12:39:06;11.60;99.90
40670;DHT22;26355;45.528;9.234;2022-12-18T12:41:34;12.30;99.90
40670;DHT22;26355;45.528;9.234;2022-12-18T12:47:39;11.60;99.90
40670;DHT22;26355;45.528;9.234;2022-12-18T12:50:15;11.80;99.90
40670;DHT22;26355;45.528;9.234;2022-12-18T12:52:51;11.80;99.90
40670;DHT22;26355;45.528;9.234;2022-12-18T12:55:21;11.90;99.90
40670;DHT22;26355;45.528;9.234;2022-12-18T13:00:54;11.80;99.90
40670;DHT22;26355;45.528;9.234;2022-12-18T13:03:32;11.90;99.90
40670;DHT22;26355;45.528;9.234;2022-12-18T13:06:04;11.90;99.90
40670;DHT22;26355;45.528;9.234;2022-12-18T13:08:59;11.70;99.90
40670;DHT22;26355;45.528;9.234;2022-12-18T13:11:40;12.00;99.90
40670;DHT22;26355;45.528;9.234;2022-12-18T13:14:31;11.80;99.90
40670;DHT22;26355;45.528;9.234;2022-12-18T13:22:40;11.90;99.90
40670;DHT22;26355;45.528;9.234;2022-12-18T13:25:35;12.10;99.90
40670;DHT22;26355;45.528;9.234;2022-12-18T13:28:09;12.10;99.90
40670;DHT22;26355;45.528;9.234;2022-12-18T13:43:53;12.10;99.90
40670;DHT22;26355;45.528;9.234;2022-12-18T13:47:23;12.00;99.90
40670;DHT22;26355;45.528;9.234;2022-12-18T13:51:43;11.80;99.90
40670;DHT22;26355;45.528;9.234;2022-12-18T13:54:35;11.80;99.90
40670;DHT22;26355;45.528;9.234;2022-12-18T13:57:03;11.80;99.90
40670;DHT22;26355;45.528;9.234;2022-12-18T13:59:37;11.50;99.90
40670;DHT22;26355;45.528;9.234;2022-12-18T14:02:17;11.60;99.90
40670;DHT22;26355;45.528;9.234;2022-12-18T14:04:46;11.50;99.90
40670;DHT22;26355;45.528;9.234;2022-12-18T14:07:17;11.50;99.90
40670;DHT22;26355;45.528;9.234;2022-12-18T14:09:46;11.60;99.90
40670;DHT22;26355;45.528;9.234;2022-12-18T14:12:29;11.50;99.90
40670;DHT22;26355;45.528;9.234;2022-12-18T14:18:21;11.60;99.90
40670;DHT22;26355;45.528;9.234;2022-12-18T14:20:50;11.70;99.90
40670;DHT22;26355;45.528;9.234;2022-12-18T14:23:33;11.10;99.90
40670;DHT22;26355;45.528;9.234;2022-12-18T14:26:18;11.20;99.90
40670;DHT22;26355;45.528;9.234;2022-12-18T14:28:45;11.30;99.90
40670;DHT22;26355;45.528;9.234;2022-12-18T14:31:21;11.00;99.90
40670;DHT22;26355;45.528;9.234;2022-12-18T14:33:48;11.10;99.90
40670;DHT22;26355;45.528;9.234;2022-12-18T14:36:22;11.10;99.90
40670;DHT22;26355;45.528;9.234;2022-12-18T14:38:56;11.10;99.90
40670;DHT22;26355;45.528;9.234;2022-12-18T14:41:23;11.00;99.90
40670;DHT22;26355;45.528;9.234;2022-12-18T14:43:51;11.00;99.90
40670;DHT22;26355;45.528;9.234;2022-12-18T14:46:36;11.00;99.90
40670;DHT22;26355;45.528;9.234;2022-12-18T14:49:32;11.00;99.90
40670;DHT22;26355;45.528;9.234;2022-12-18T14:51:59;11.00;99.90
40670;DHT22;26355;45.528;9.234;2022-12-18T14:54:27;10.90;99.90
40670;DHT22;26355;45.528;9.234;2022-12-18T14:59:45;10.80;99.90
40670;DHT22;26355;45.528;9.234;2022-12-18T15:02:23;10.90;99.90
40670;DHT22;26355;45.528;9.234;2022-12-18T15:05:01;10.50;99.90
40670;DHT22;26355;45.528;9.234;2022-12-18T15:07:33;10.80;99.90
40670;DHT22;26355;45.528;9.234;2022-12-18T15:10:20;10.70;99.90
40670;DHT22;26355;45.528;9.234;2022-12-18T15:12:49;10.70;99.90
40670;DHT22;26355;45.528;9.234;2022-12-18T15:20:49;10.70;99.90
40670;DHT22;26355;45.528;9.234;2022-12-18T15:25:47;11.00;99.90
40670;DHT22;26355;45.528;9.234;2022-12-18T15:28:19;11.10;99.90
40670;DHT22;26355;45.528;9.234;2022-12-18T15:31:20;11.00;99.90
40670;DHT22;26355;45.528;9.234;2022-12-18T15:36:19;10.90;99.90
40670;DHT22;26355;45.528;9.234;2022-12-18T15:38:52;11.00;99.90
40670;DHT22;26355;45.528;9.234;2022-12-18T15:41:24;11.10;99.90
40670;DHT22;26355;45.528;9.234;2022-12-18T15:43:54;11.20;99.90
40670;DHT22;26355;45.528;9.234;2022-12-18T15:46:22;11.20;99.90
40670;DHT22;26355;45.528;9.234;2022-12-18T15:48:52;11.20;99.90
40670;DHT22;26355;45.528;9.234;2022-12-18T15:51:26;11.10;99.90
40670;DHT22;26355;45.528;9.234;2022-12-18T15:53:56;11.10;99.90
40670;DHT22;26355;45.528;9.234;2022-12-18T15:56:22;11.00;99.90
40670;DHT22;26355;45.528;9.234;2022-12-18T15:59:16;10.80;99.90
40670;DHT22;26355;45.528;9.234;2022-12-18T16:01:46;10.80;99.90
40670;DHT22;26355;45.528;9.234;2022-12-18T16:04:13;10.50;99.90
40670;DHT22;26355;45.528;9.234;2022-12-18T16:06:39;10.60;99.90
40670;DHT22;26355;45.528;9.234;2022-12-18T16:09:05;10.50;99.90
40670;DHT22;26355;45.528;9.234;2022-12-18T16:11:33;10.30;99.90
40670;DHT22;26355;45.528;9.234;2022-12-18T16:14:25;10.30;99.90
40670;DHT22;26355;45.528;9.234;2022-12-18T16:16:56;10.30;99.90
40670;DHT22;26355;45.528;9.234;2022-12-18T16:19:23;10.60;99.90
40670;DHT22;26355;45.528;9.234;2022-12-18T16:21:50;10.30;99.90
40670;DHT22;26355;45.528;9.234;2022-12-18T16:24:18;10.10;99.90
40670;DHT22;26355;45.528;9.234;2022-12-18T16:26:45;10.10;99.90
40670;DHT22;26355;45.528;9.234;2022-12-18T16:29:11;11.00;99.90
40670;DHT22;26355;45.528;9.234;2022-12-18T16:31:37;10.30;99.90
40670;DHT22;26355;45.528;9.234;2022-12-18T16:34:33;10.30;99.90
40670;DHT22;26355;45.528;9.234;2022-12-18T16:37:07;9.50;99.90
40670;DHT22;26355;45.528;9.234;2022-12-18T16:39:33;9.50;99.90
40670;DHT22;26355;45.528;9.234;2022-12-18T16:42:01;9.80;99.90
40670;DHT22;26355;45.528;9.234;2022-12-18T16:44:26;9.80;99.90
40670;DHT22;26355;45.528;9.234;2022-12-18T16:46:53;10.10;99.90
40670;DHT22;26355;45.528;9.234;2022-12-18T16:49:19;10.10;99.90
40670;DHT22;26355;45.528;9.234;2022-12-18T16:51:46;9.80;99.90
40670;DHT22;26355;45.528;9.234;2022-12-18T16:54:12;9.90;99.90
40670;DHT22;26355;45.528;9.234;2022-12-18T16:56:38;9.60;99.90
40670;DHT22;26355;45.528;9.234;2022-12-18T16:59:04;9.70;99.90
40670;DHT22;26355;45.528;9.234;2022-12-18T17:01:31;9.60;99.90
40670;DHT22;26355;45.528;9.234;2022-12-18T17:04:02;10.20;99.90
40670;DHT22;26355;45.528;9.234;2022-12-18T17:06:30;9.60;99.90
40670;DHT22;26355;45.528;9.234;2022-12-18T17:08:57;9.50;99.90
40670;DHT22;26355;45.528;9.234;2022-12-18T17:11:28;9.30;99.90
40670;DHT22;26355;45.528;9.234;2022-12-18T17:13:54;9.30;99.90
40670;DHT22;26355;45.528;9.234;2022-12-18T17:16:21;8.80;99.90
40670;DHT22;26355;45.528;9.234;2022-12-18T17:18:48;9.40;99.90
40670;DHT22;26355;45.528;9.234;2022-12-18T17:21:14;8.90;99.90
40670;DHT22;26355;45.528;9.234;2022-12-18T17:23:41;9.10;99.90
40670;DHT22;26355;45.528;9.234;2022-12-18T17:26:08;9.00;99.90
40670;DHT22;26355;45.528;9.234;2022-12-18T17:28:36;8.30;99.90
40670;DHT22;26355;45.528;9.234;2022-12-18T17:31:09;9.20;99.90
40670;DHT22;26355;45.528;9.234;2022-12-18T17:33:35;8.60;99.90
40670;DHT22;26355;45.528;9.234;2022-12-18T17:36:00;9.50;99.90
40670;DHT22;26355;45.528;9.234;2022-12-18T17:38:26;9.10;99.90
40670;DHT22;26355;45.528;9.234;2022-12-18T17:40:52;9.10;99.90
40670;DHT22;26355;45.528;9.234;2022-12-18T17:43:18;9.70;99.90
40670;DHT22;26355;45.528;9.234;2022-12-18T17:45:43;9.60;99.90
40670;DHT22;26355;45.528;9.234;2022-12-18T17:48:09;9.50;99.90
40670;DHT22;26355;45.528;9.234;2022-12-18T17:50:35;9.30;99.90
40670;DHT22;26355;45.528;9.234;2022-12-18T17:53:02;8.70;99.90
40670;DHT22;26355;45.528;9.234;2022-12-18T17:55:28;10.60;99.90
40670;DHT22;26355;45.528;9.234;2022-12-18T17:57:54;10.10;99.90
40670;DHT22;26355;45.528;9.234;2022-12-18T18:00:20;9.90;99.90
40670;DHT22;26355;45.528;9.234;2022-12-18T18:02:46;9.10;99.90